createdAt,value
2023-04-11T00:01:53.829Z,7.80
2023-04-11T00:04:21.204Z,7.80
2023-04-11T00:06:48.733Z,7.80
2023-04-11T00:09:16.900Z,7.70
2023-04-11T00:11:44.027Z,7.70
2023-04-11T00:14:12.736Z,7.60
2023-04-11T00:16:41.581Z,7.60
2023-04-11T00:19:09.605Z,7.60
2023-04-11T00:21:40.137Z,7.60
2023-04-11T00:24:08.628Z,7.70
2023-04-11T00:26:35.841Z,7.60
2023-04-11T00:29:03.260Z,7.60
2023-04-11T00:31:30.773Z,7.60
2023-04-11T00:33:58.293Z,7.50
2023-04-11T00:36:26.875Z,7.50
2023-04-11T00:38:55.191Z,7.50
2023-04-11T00:41:22.566Z,7.40
2023-04-11T00:43:49.932Z,7.40
2023-04-11T00:46:17.956Z,7.40
2023-04-11T00:48:45.543Z,7.40
2023-04-11T00:51:12.678Z,7.30
2023-04-11T00:53:40.013Z,7.30
2023-04-11T00:56:07.487Z,7.30
2023-04-11T00:58:34.719Z,7.30
2023-04-11T01:01:02.544Z,7.20
2023-04-11T01:03:30.310Z,7.20
2023-04-11T01:05:57.786Z,7.20
2023-04-11T01:08:25.550Z,7.20
2023-04-11T01:10:52.836Z,7.20
2023-04-11T01:13:20.706Z,7.20
2023-04-11T01:15:47.989Z,7.10
2023-04-11T01:18:15.667Z,7.10
2023-04-11T01:20:42.996Z,7.00
2023-04-11T01:23:11.412Z,7.00
2023-04-11T01:25:38.436Z,7.00
2023-04-11T01:28:08.781Z,7.00
2023-04-11T01:30:35.973Z,7.00
2023-04-11T01:33:03.307Z,7.00
2023-04-11T01:35:30.888Z,7.00
2023-04-11T01:37:59.100Z,6.90
2023-04-11T01:40:27.980Z,6.90
2023-04-11T01:42:55.743Z,6.90
2023-04-11T01:45:22.874Z,6.80
2023-04-11T01:47:52.040Z,6.80
2023-04-11T01:50:19.233Z,6.80
2023-04-11T01:52:46.983Z,6.80
2023-04-11T01:55:14.255Z,6.70
2023-04-11T01:57:42.101Z,6.70
2023-04-11T02:00:11.157Z,6.60
2023-04-11T02:02:45.906Z,6.60
2023-04-11T02:05:13.111Z,6.60
2023-04-11T02:07:40.125Z,6.60
2023-04-11T02:10:07.989Z,6.50
2023-04-11T02:12:35.052Z,6.50
2023-04-11T02:15:02.062Z,6.50
2023-04-11T02:17:31.296Z,6.50
2023-04-11T02:19:58.899Z,6.50
2023-04-11T02:22:26.092Z,6.40
2023-04-11T02:24:53.335Z,6.30
2023-04-11T02:27:20.534Z,6.30
2023-04-11T02:29:47.514Z,6.30
2023-04-11T02:32:16.215Z,6.30
2023-04-11T02:34:46.265Z,6.30
2023-04-11T02:37:13.507Z,6.30
2023-04-11T02:39:40.673Z,6.20
2023-04-11T02:42:07.668Z,6.20
2023-04-11T02:44:34.753Z,6.20
2023-04-11T02:47:02.038Z,6.20
2023-04-11T02:49:29.493Z,6.10
2023-04-11T02:51:57.057Z,6.10
2023-04-11T02:54:24.233Z,6.10
2023-04-11T02:56:52.843Z,6.10
2023-04-11T02:59:19.948Z,6.10
2023-04-11T03:01:47.141Z,6.00
2023-04-11T03:04:14.983Z,6.00
2023-04-11T03:07:06.424Z,6.00
2023-04-11T03:09:33.503Z,6.00
2023-04-11T03:12:01.406Z,5.90
2023-04-11T03:14:28.527Z,5.90
2023-04-11T03:16:55.685Z,5.90
2023-04-11T03:19:22.857Z,5.90
2023-04-11T03:21:50.072Z,6.00
2023-04-11T03:24:17.899Z,5.90
2023-04-11T03:26:45.037Z,5.90
2023-04-11T03:29:16.669Z,5.90
2023-04-11T03:31:59.471Z,5.90
2023-04-11T03:34:28.713Z,5.90
2023-04-11T03:36:57.404Z,6.10
2023-04-11T03:39:25.774Z,5.80
2023-04-11T03:41:53.239Z,5.80
2023-04-11T03:44:20.280Z,5.80
2023-04-11T03:46:47.882Z,5.80
2023-04-11T03:49:15.091Z,5.80
2023-04-11T03:51:43.261Z,5.70
2023-04-11T03:54:10.912Z,5.70
2023-04-11T03:56:41.336Z,5.70
2023-04-11T03:59:15.715Z,5.70
2023-04-11T04:01:52.250Z,5.70
2023-04-11T04:04:19.734Z,5.70
2023-04-11T04:06:57.055Z,5.70
2023-04-11T04:09:31.841Z,5.70
2023-04-11T04:11:58.912Z,5.70
2023-04-11T04:14:37.381Z,5.70
2023-04-11T04:17:05.365Z,5.70
2023-04-11T04:19:32.866Z,5.70
2023-04-11T04:21:59.824Z,5.70
2023-04-11T04:24:32.235Z,5.70
2023-04-11T04:27:10.834Z,5.70
2023-04-11T04:29:50.843Z,5.70
2023-04-11T04:32:25.118Z,5.80
2023-04-11T04:34:59.062Z,5.80
2023-04-11T04:37:29.221Z,5.80
2023-04-11T04:40:09.743Z,5.80
2023-04-11T04:42:50.070Z,5.80
2023-04-11T04:45:17.306Z,5.80
2023-04-11T04:47:44.890Z,5.80
2023-04-11T04:50:12.525Z,5.90
2023-04-11T04:52:39.668Z,5.90
2023-04-11T04:55:07.602Z,5.90
2023-04-11T04:57:34.765Z,6.00
2023-04-11T05:00:11.822Z,6.00
2023-04-11T05:02:42.306Z,6.00
2023-04-11T05:05:10.124Z,6.10
2023-04-11T05:07:37.261Z,6.10
2023-04-11T05:10:05.755Z,6.20
2023-04-11T05:12:33.087Z,6.20
2023-04-11T05:15:09.768Z,6.30
2023-04-11T05:17:37.157Z,6.30
2023-04-11T05:20:06.676Z,6.40
2023-04-11T05:22:34.014Z,6.40
2023-04-11T05:25:01.609Z,6.50
2023-04-11T05:27:29.053Z,6.50
2023-04-11T05:29:56.477Z,6.60
2023-04-11T05:32:24.150Z,6.70
2023-04-11T05:34:55.269Z,6.80
2023-04-11T05:37:37.355Z,6.80
2023-04-11T05:40:07.961Z,6.90
2023-04-11T05:42:35.067Z,7.00
2023-04-11T05:45:02.133Z,7.20
2023-04-11T05:47:29.198Z,7.20
2023-04-11T05:49:56.346Z,7.30
2023-04-11T05:52:23.499Z,7.50
2023-04-11T05:54:50.840Z,7.60
2023-04-11T05:57:18.149Z,7.70
2023-04-11T05:59:49.991Z,7.90
2023-04-11T06:02:17.533Z,8.00
2023-04-11T06:04:45.020Z,8.10
2023-04-11T06:07:12.592Z,8.30
2023-04-11T06:09:42.248Z,8.50
2023-04-11T06:12:10.055Z,8.70
2023-04-11T06:14:39.508Z,8.80
2023-04-11T06:17:07.473Z,9.00
2023-04-11T06:19:34.597Z,9.20
2023-04-11T06:22:02.111Z,9.30
2023-04-11T06:24:39.901Z,9.40
2023-04-11T06:27:10.966Z,9.50
2023-04-11T06:29:43.692Z,9.60
2023-04-11T06:32:12.193Z,9.70
2023-04-11T06:34:40.021Z,9.80
2023-04-11T06:37:07.620Z,9.90
2023-04-11T06:39:35.137Z,10.00
2023-04-11T06:42:03.005Z,10.10
2023-04-11T06:44:32.474Z,10.10
2023-04-11T06:46:59.711Z,10.20
2023-04-11T06:49:28.396Z,10.20
2023-04-11T06:51:56.018Z,10.30
2023-04-11T06:54:23.800Z,10.50
2023-04-11T06:56:51.003Z,10.70
2023-04-11T06:59:22.388Z,10.90
2023-04-11T07:01:50.588Z,11.10
2023-04-11T07:04:17.868Z,11.20
2023-04-11T07:06:45.954Z,11.30
2023-04-11T07:09:13.138Z,11.60
2023-04-11T07:11:40.753Z,11.60
2023-04-11T07:14:07.867Z,11.70
2023-04-11T07:16:34.942Z,11.80
2023-04-11T07:19:03.270Z,11.80
2023-04-11T07:21:33.507Z,12.00
2023-04-11T07:24:04.011Z,12.20
2023-04-11T07:26:32.787Z,12.40
2023-04-11T07:29:00.226Z,12.40
2023-04-11T07:31:27.613Z,12.60
2023-04-11T07:33:54.965Z,12.80
2023-04-11T07:36:22.430Z,13.10
2023-04-11T07:38:49.476Z,13.40
2023-04-11T07:41:16.519Z,13.60
2023-04-11T07:43:43.721Z,13.50
2023-04-11T07:46:12.623Z,13.40
2023-04-11T07:48:39.982Z,13.30
2023-04-11T07:51:07.089Z,13.20
2023-04-11T07:53:34.433Z,13.20
2023-04-11T07:56:01.694Z,13.10
2023-04-11T07:58:28.982Z,13.10
2023-04-11T08:00:56.031Z,13.40
2023-04-11T08:03:23.823Z,13.50
2023-04-11T08:05:52.380Z,13.50
2023-04-11T08:08:19.506Z,13.40
2023-04-11T08:10:46.567Z,13.50
2023-04-11T08:13:13.643Z,13.50
2023-04-11T08:15:40.676Z,13.50
2023-04-11T08:20:40.734Z,13.40
2023-04-11T08:23:08.893Z,13.50
2023-04-11T08:25:36.962Z,13.50
2023-04-11T08:28:05.222Z,13.60
2023-04-11T08:30:32.615Z,13.70
2023-04-11T08:32:59.740Z,13.70
2023-04-11T08:35:26.954Z,13.80
2023-04-11T08:37:54.446Z,13.90
2023-04-11T08:40:21.990Z,13.70
2023-04-11T08:42:49.374Z,13.60
2023-04-11T08:45:16.417Z,13.70
2023-04-11T08:47:45.418Z,13.80
2023-04-11T08:50:12.996Z,14.10
2023-04-11T08:52:40.815Z,14.30
2023-04-11T08:55:08.506Z,14.40
2023-04-11T08:57:38.222Z,14.60
2023-04-11T09:00:19.148Z,14.60
2023-04-11T09:03:05.887Z,14.60
2023-04-11T09:05:41.211Z,14.50
2023-04-11T09:08:10.836Z,14.50
2023-04-11T09:10:43.419Z,14.60
2023-04-11T09:13:25.747Z,14.70
2023-04-11T09:16:10.665Z,14.60
2023-04-11T09:18:46.699Z,14.60
2023-04-11T09:21:15.650Z,14.80
2023-04-11T09:23:43.627Z,14.70
2023-04-11T09:26:11.825Z,14.70
2023-04-11T09:28:43.290Z,14.70
2023-04-11T09:31:13.456Z,14.70
2023-04-11T09:33:56.513Z,14.70
2023-04-11T09:36:27.317Z,14.70
2023-04-11T09:38:54.755Z,14.80
2023-04-11T09:41:36.333Z,15.00
2023-04-11T09:44:03.724Z,15.20
2023-04-11T09:46:30.919Z,15.30
2023-04-11T09:48:58.222Z,15.30
2023-04-11T09:51:35.194Z,15.40
2023-04-11T09:54:04.465Z,15.60
2023-04-11T09:56:34.508Z,15.70
2023-04-11T09:59:03.875Z,15.70
2023-04-11T10:01:31.107Z,15.70
2023-04-11T10:03:58.701Z,16.10
2023-04-11T10:06:41.455Z,16.00
2023-04-11T10:09:11.568Z,16.00
2023-04-11T10:11:45.469Z,15.90
2023-04-11T10:14:38.578Z,15.90
2023-04-11T10:17:18.520Z,15.80
2023-04-11T10:19:49.156Z,15.90
2023-04-11T10:22:46.633Z,16.00
2023-04-11T10:25:20.906Z,16.20
2023-04-11T10:27:49.736Z,16.20
2023-04-11T10:30:17.119Z,16.20
2023-04-11T10:33:10.009Z,16.30
2023-04-11T10:35:56.103Z,16.40
2023-04-11T10:38:42.099Z,16.70
2023-04-11T10:41:28.239Z,16.80
2023-04-11T10:44:23.326Z,16.70
2023-04-11T10:46:55.288Z,16.90
2023-04-11T10:49:39.675Z,16.90
2023-04-11T10:52:25.202Z,16.80
2023-04-11T10:54:53.702Z,16.70
2023-04-11T10:57:21.752Z,17.00
2023-04-11T10:59:51.913Z,16.70
2023-04-11T11:02:20.160Z,16.70
2023-04-11T11:04:48.894Z,16.70
2023-04-11T11:07:17.112Z,16.80
2023-04-11T11:09:49.481Z,16.90
2023-04-11T11:12:17.262Z,17.00
2023-04-11T11:14:46.261Z,17.30
2023-04-11T11:17:14.510Z,17.50
2023-04-11T11:19:46.461Z,17.30
2023-04-11T11:22:26.108Z,17.40
2023-04-11T11:24:54.960Z,17.50
2023-04-11T11:27:23.779Z,17.50
2023-04-11T11:29:51.799Z,17.50
2023-04-11T11:32:30.026Z,17.50
2023-04-11T11:34:57.952Z,17.40
2023-04-11T11:37:25.287Z,17.50
2023-04-11T11:39:53.221Z,17.80
2023-04-11T11:42:22.838Z,17.80
2023-04-11T11:44:49.889Z,17.70
2023-04-11T11:47:17.084Z,17.70
2023-04-11T11:49:56.669Z,17.30
2023-04-11T11:52:43.634Z,17.40
2023-04-11T11:55:32.445Z,17.30
2023-04-11T11:58:02.258Z,17.40
2023-04-11T12:00:32.030Z,17.40
2023-04-11T12:03:00.126Z,17.80
2023-04-11T12:05:33.207Z,18.10
2023-04-11T12:08:06.080Z,18.20
2023-04-11T12:10:51.621Z,18.30
2023-04-11T12:13:25.419Z,18.00
2023-04-11T12:15:58.027Z,17.90
2023-04-11T12:18:28.602Z,17.70
2023-04-11T12:20:56.110Z,17.60
2023-04-11T12:23:23.365Z,17.60
2023-04-11T12:25:50.591Z,17.40
2023-04-11T12:28:17.692Z,17.50
2023-04-11T12:30:44.663Z,17.70
2023-04-11T12:33:12.018Z,17.80
2023-04-11T12:35:39.098Z,18.10
2023-04-11T12:38:07.837Z,18.40
2023-04-11T12:40:34.862Z,18.40
2023-04-11T12:43:01.935Z,18.10
2023-04-11T12:45:29.132Z,18.10
2023-04-11T12:47:56.204Z,18.20
2023-04-11T12:50:24.075Z,18.20
2023-04-11T12:52:52.321Z,18.20
2023-04-11T12:55:19.543Z,18.10
2023-04-11T12:57:46.891Z,18.40
2023-04-11T13:00:14.895Z,18.60
2023-04-11T13:02:45.027Z,18.40
2023-04-11T13:05:17.036Z,18.40
2023-04-11T13:07:45.597Z,18.40
2023-04-11T13:10:14.279Z,18.20
2023-04-11T13:12:44.723Z,17.90
2023-04-11T13:15:16.697Z,17.60
2023-04-11T13:17:44.164Z,17.60
2023-04-11T13:20:12.971Z,18.00
2023-04-11T13:22:41.944Z,17.70
2023-04-11T13:25:09.954Z,17.40
2023-04-11T13:27:39.458Z,17.30
2023-04-11T13:30:07.883Z,17.40
2023-04-11T13:32:35.087Z,17.40
2023-04-11T13:35:03.024Z,17.40
2023-04-11T13:37:30.142Z,17.40
2023-04-11T13:39:58.261Z,17.50
2023-04-11T13:42:25.313Z,17.50
2023-04-11T13:44:52.278Z,17.50
2023-04-11T13:47:19.368Z,17.50
2023-04-11T13:49:47.953Z,17.40
2023-04-11T13:52:15.015Z,17.40
2023-04-11T13:54:42.168Z,17.30
2023-04-11T13:57:09.694Z,17.30
2023-04-11T13:59:36.860Z,17.30
2023-04-11T14:02:04.116Z,17.30
2023-04-11T14:04:31.471Z,17.20
2023-04-11T14:06:58.584Z,17.10
2023-04-11T14:09:25.733Z,17.20
2023-04-11T14:11:52.833Z,17.20
2023-04-11T14:14:19.852Z,17.30
2023-04-11T14:16:47.070Z,17.30
2023-04-11T14:19:14.669Z,17.30
2023-04-11T14:21:42.002Z,17.40
2023-04-11T14:24:09.700Z,17.40
2023-04-11T14:26:37.280Z,17.50
2023-04-11T14:29:04.838Z,17.60
2023-04-11T14:31:32.119Z,17.50
2023-04-11T14:33:59.504Z,17.00
2023-04-11T14:36:28.045Z,17.20
2023-04-11T14:38:55.416Z,17.00
2023-04-11T14:41:23.352Z,16.90
2023-04-11T14:43:50.432Z,16.70
2023-04-11T14:46:17.688Z,16.70
2023-04-11T14:48:44.766Z,16.60
2023-04-11T14:51:11.803Z,16.50
2023-04-11T14:53:41.432Z,16.50
2023-04-11T14:56:08.907Z,16.30
2023-04-11T14:58:35.997Z,16.30
2023-04-11T15:01:03.613Z,16.20
2023-04-11T15:03:33.191Z,16.00
2023-04-11T15:06:00.446Z,15.90
2023-04-11T15:08:27.654Z,15.70
2023-04-11T15:10:55.865Z,15.60
2023-04-11T15:13:23.271Z,15.40
2023-04-11T15:15:51.517Z,15.30
2023-04-11T15:18:28.110Z,15.20
2023-04-11T15:20:57.378Z,15.00
2023-04-11T15:23:24.657Z,14.90
2023-04-11T15:25:56.841Z,14.80
2023-04-11T15:28:25.713Z,14.70
2023-04-11T15:30:54.317Z,14.60
2023-04-11T15:33:25.793Z,14.40
2023-04-11T15:35:54.044Z,14.40
2023-04-11T15:38:23.284Z,14.20
2023-04-11T15:40:51.602Z,14.10
2023-04-11T15:43:18.839Z,14.00
2023-04-11T15:45:46.924Z,13.70
2023-04-11T15:48:14.102Z,13.40
2023-04-11T15:50:42.576Z,13.30
2023-04-11T15:53:10.832Z,13.30
2023-04-11T15:55:44.256Z,12.50
2023-04-11T15:58:13.044Z,13.10
2023-04-11T16:00:42.352Z,12.80
2023-04-11T16:03:10.814Z,12.70
2023-04-11T16:05:40.872Z,12.60
2023-04-11T16:08:08.447Z,12.60
2023-04-11T16:10:35.632Z,12.40
2023-04-11T16:13:03.055Z,12.30
2023-04-11T16:15:30.668Z,12.20
2023-04-11T16:18:00.908Z,12.00
2023-04-11T16:20:34.061Z,12.10
2023-04-11T16:23:04.225Z,12.00
2023-04-11T16:25:31.908Z,12.00
2023-04-11T16:27:59.417Z,12.00
2023-04-11T16:30:34.629Z,11.50
2023-04-11T16:33:02.149Z,12.00
2023-04-11T16:35:39.444Z,12.00
2023-04-11T16:38:07.694Z,12.00
2023-04-11T16:40:37.394Z,12.00
2023-04-11T16:51:59.522Z,11.90
2023-04-11T16:54:27.172Z,11.90
2023-04-11T16:56:54.591Z,11.80
2023-04-11T17:04:05.293Z,11.90
2023-04-11T17:06:42.736Z,12.00
2023-04-11T17:09:37.096Z,11.90
2023-04-11T17:13:09.971Z,12.00
2023-04-11T18:12:20.317Z,11.40
2023-04-11T21:51:15.269Z,9.10
2023-04-11T22:01:00.621Z,9.00
2023-04-11T22:13:28.900Z,8.70
2023-04-11T22:18:58.555Z,8.60
2023-04-11T22:21:50.132Z,8.70
2023-04-11T22:24:31.479Z,8.60
2023-04-11T22:27:11.323Z,8.60
2023-04-11T22:33:34.834Z,8.50
2023-04-11T22:36:12.123Z,8.40
2023-04-11T22:39:13.929Z,8.40
2023-04-11T22:42:18.080Z,8.40
2023-04-11T22:44:59.148Z,8.30
2023-04-11T22:47:36.427Z,8.30
2023-04-11T22:54:10.048Z,8.20
2023-04-11T22:56:37.136Z,8.20
2023-04-11T23:09:33.777Z,8.10
2023-04-11T23:15:23.629Z,8.20
2023-04-11T23:31:27.735Z,8.00
2023-04-11T23:37:21.407Z,7.90
2023-04-11T23:40:16.841Z,7.90
2023-04-11T23:46:38.443Z,7.90
2023-04-11T23:53:02.996Z,7.80
2023-04-11T23:55:32.747Z,7.80
2023-04-11T23:58:12.686Z,7.80
